sensor_id;sensor_type;location;lat;lon;timestamp;P1;durP1;ratioP1;P2;durP2;ratioP2
74177;SDS011;62540;48.456;-4.456;2023-08-31T00:01:48;0.00;;;0.00;;
74177;SDS011;62540;48.456;-4.456;2023-08-31T00:04:14;0.00;;;0.00;;
74177;SDS011;62540;48.456;-4.456;2023-08-31T00:06:40;0.00;;;0.00;;
74177;SDS011;62540;48.456;-4.456;2023-08-31T00:09:06;1.00;;;0.00;;
74177;SDS011;62540;48.456;-4.456;2023-08-31T00:11:34;0.00;;;0.00;;
74177;SDS011;62540;48.456;-4.456;2023-08-31T00:14:00;0.75;;;0.00;;
74177;SDS011;62540;48.456;-4.456;2023-08-31T00:16:26;0.75;;;0.00;;
74177;SDS011;62540;48.456;-4.456;2023-08-31T00:18:51;0.00;;;0.00;;
74177;SDS011;62540;48.456;-4.456;2023-08-31T00:21:18;1.00;;;0.75;;
74177;SDS011;62540;48.456;-4.456;2023-08-31T00:23:43;1.00;;;1.00;;
74177;SDS011;62540;48.456;-4.456;2023-08-31T00:26:08;0.00;;;0.00;;
74177;SDS011;62540;48.456;-4.456;2023-08-31T00:28:34;0.00;;;0.00;;
74177;SDS011;62540;48.456;-4.456;2023-08-31T00:31:00;0.00;;;0.00;;
74177;SDS011;62540;48.456;-4.456;2023-08-31T00:33:28;0.75;;;0.00;;
74177;SDS011;62540;48.456;-4.456;2023-08-31T00:35:54;0.00;;;0.00;;
74177;SDS011;62540;48.456;-4.456;2023-08-31T00:38:21;0.00;;;0.00;;
74177;SDS011;62540;48.456;-4.456;2023-08-31T00:40:46;0.00;;;0.00;;
74177;SDS011;62540;48.456;-4.456;2023-08-31T00:43:15;0.00;;;0.00;;
74177;SDS011;62540;48.456;-4.456;2023-08-31T00:45:41;0.75;;;0.00;;
74177;SDS011;62540;48.456;-4.456;2023-08-31T00:48:07;0.00;;;0.00;;
74177;SDS011;62540;48.456;-4.456;2023-08-31T00:50:33;0.00;;;0.00;;
74177;SDS011;62540;48.456;-4.456;2023-08-31T00:52:58;0.00;;;0.00;;
74177;SDS011;62540;48.456;-4.456;2023-08-31T00:55:24;0.00;;;0.00;;
74177;SDS011;62540;48.456;-4.456;2023-08-31T00:57:49;0.25;;;0.00;;
74177;SDS011;62540;48.456;-4.456;2023-08-31T01:00:15;0.00;;;0.00;;
74177;SDS011;62540;48.456;-4.456;2023-08-31T01:05:29;0.00;;;0.00;;
74177;SDS011;62540;48.456;-4.456;2023-08-31T01:10:39;1.00;;;0.00;;
74177;SDS011;62540;48.456;-4.456;2023-08-31T01:13:15;0.00;;;0.00;;
74177;SDS011;62540;48.456;-4.456;2023-08-31T01:15:48;0.00;;;0.00;;
74177;SDS011;62540;48.456;-4.456;2023-08-31T01:18:18;0.00;;;0.00;;
74177;SDS011;62540;48.456;-4.456;2023-08-31T01:20:55;0.00;;;0.00;;
74177;SDS011;62540;48.456;-4.456;2023-08-31T01:23:49;0.00;;;0.00;;
74177;SDS011;62540;48.456;-4.456;2023-08-31T01:26:16;0.00;;;0.00;;
74177;SDS011;62540;48.456;-4.456;2023-08-31T01:28:42;0.00;;;0.00;;
74177;SDS011;62540;48.456;-4.456;2023-08-31T01:31:07;0.00;;;0.00;;
74177;SDS011;62540;48.456;-4.456;2023-08-31T01:33:34;0.00;;;0.00;;
74177;SDS011;62540;48.456;-4.456;2023-08-31T01:35:59;0.00;;;0.00;;
74177;SDS011;62540;48.456;-4.456;2023-08-31T01:38:30;0.00;;;0.00;;
74177;SDS011;62540;48.456;-4.456;2023-08-31T01:41:03;0.00;;;0.00;;
74177;SDS011;62540;48.456;-4.456;2023-08-31T01:43:32;0.00;;;0.00;;
74177;SDS011;62540;48.456;-4.456;2023-08-31T01:45:58;0.00;;;0.00;;
74177;SDS011;62540;48.456;-4.456;2023-08-31T01:48:25;0.00;;;0.00;;
74177;SDS011;62540;48.456;-4.456;2023-08-31T01:50:50;0.00;;;0.00;;
74177;SDS011;62540;48.456;-4.456;2023-08-31T01:53:15;0.00;;;0.00;;
74177;SDS011;62540;48.456;-4.456;2023-08-31T01:55:41;0.00;;;0.00;;
74177;SDS011;62540;48.456;-4.456;2023-08-31T01:58:06;0.00;;;0.00;;
74177;SDS011;62540;48.456;-4.456;2023-08-31T02:00:32;0.00;;;0.00;;
74177;SDS011;62540;48.456;-4.456;2023-08-31T02:03:00;0.00;;;0.00;;
74177;SDS011;62540;48.456;-4.456;2023-08-31T02:05:25;0.00;;;0.00;;
74177;SDS011;62540;48.456;-4.456;2023-08-31T02:07:51;0.00;;;0.00;;
74177;SDS011;62540;48.456;-4.456;2023-08-31T02:10:16;0.00;;;0.00;;
74177;SDS011;62540;48.456;-4.456;2023-08-31T02:12:41;0.00;;;0.00;;
74177;SDS011;62540;48.456;-4.456;2023-08-31T02:15:07;0.00;;;0.00;;
74177;SDS011;62540;48.456;-4.456;2023-08-31T02:17:35;0.00;;;0.00;;
74177;SDS011;62540;48.456;-4.456;2023-08-31T02:20:01;0.00;;;0.00;;
74177;SDS011;62540;48.456;-4.456;2023-08-31T02:22:30;0.00;;;0.00;;
74177;SDS011;62540;48.456;-4.456;2023-08-31T02:24:56;0.00;;;0.00;;
74177;SDS011;62540;48.456;-4.456;2023-08-31T02:27:22;0.00;;;0.00;;
74177;SDS011;62540;48.456;-4.456;2023-08-31T02:29:47;0.00;;;0.00;;
74177;SDS011;62540;48.456;-4.456;2023-08-31T02:32:12;0.50;;;0.00;;
74177;SDS011;62540;48.456;-4.456;2023-08-31T02:34:38;0.25;;;0.25;;
74177;SDS011;62540;48.456;-4.456;2023-08-31T02:37:03;0.00;;;0.00;;
74177;SDS011;62540;48.456;-4.456;2023-08-31T02:39:28;0.00;;;0.00;;
74177;SDS011;62540;48.456;-4.456;2023-08-31T02:41:54;0.00;;;0.00;;
74177;SDS011;62540;48.456;-4.456;2023-08-31T02:44:19;0.00;;;0.00;;
74177;SDS011;62540;48.456;-4.456;2023-08-31T02:46:45;0.00;;;0.00;;
74177;SDS011;62540;48.456;-4.456;2023-08-31T02:49:10;0.00;;;0.00;;
74177;SDS011;62540;48.456;-4.456;2023-08-31T02:51:36;0.00;;;0.00;;
74177;SDS011;62540;48.456;-4.456;2023-08-31T02:54:01;0.00;;;0.00;;
74177;SDS011;62540;48.456;-4.456;2023-08-31T02:56:28;0.00;;;0.00;;
74177;SDS011;62540;48.456;-4.456;2023-08-31T02:58:53;0.00;;;0.00;;
74177;SDS011;62540;48.456;-4.456;2023-08-31T03:01:19;0.00;;;0.00;;
74177;SDS011;62540;48.456;-4.456;2023-08-31T03:03:44;0.00;;;0.00;;
74177;SDS011;62540;48.456;-4.456;2023-08-31T03:06:11;0.00;;;0.00;;
74177;SDS011;62540;48.456;-4.456;2023-08-31T03:08:36;1.00;;;0.00;;
74177;SDS011;62540;48.456;-4.456;2023-08-31T03:11:02;0.00;;;0.00;;
74177;SDS011;62540;48.456;-4.456;2023-08-31T03:13:29;0.00;;;0.00;;
74177;SDS011;62540;48.456;-4.456;2023-08-31T03:15:56;0.00;;;0.00;;
74177;SDS011;62540;48.456;-4.456;2023-08-31T03:18:22;0.00;;;0.00;;
74177;SDS011;62540;48.456;-4.456;2023-08-31T03:20:48;0.00;;;0.00;;
74177;SDS011;62540;48.456;-4.456;2023-08-31T03:23:13;0.00;;;0.00;;
74177;SDS011;62540;48.456;-4.456;2023-08-31T03:25:38;0.00;;;0.00;;
74177;SDS011;62540;48.456;-4.456;2023-08-31T03:28:04;0.00;;;0.00;;
74177;SDS011;62540;48.456;-4.456;2023-08-31T03:30:29;0.50;;;0.50;;
74177;SDS011;62540;48.456;-4.456;2023-08-31T03:32:55;0.00;;;0.00;;
74177;SDS011;62540;48.456;-4.456;2023-08-31T03:35:20;0.00;;;0.00;;
74177;SDS011;62540;48.456;-4.456;2023-08-31T03:37:51;0.00;;;0.00;;
74177;SDS011;62540;48.456;-4.456;2023-08-31T03:40:17;0.00;;;0.00;;
74177;SDS011;62540;48.456;-4.456;2023-08-31T03:42:42;0.00;;;0.00;;
74177;SDS011;62540;48.456;-4.456;2023-08-31T03:45:07;0.00;;;0.00;;
74177;SDS011;62540;48.456;-4.456;2023-08-31T03:47:33;0.00;;;0.00;;
74177;SDS011;62540;48.456;-4.456;2023-08-31T03:49:58;0.00;;;0.00;;
74177;SDS011;62540;48.456;-4.456;2023-08-31T03:52:24;1.00;;;0.00;;
74177;SDS011;62540;48.456;-4.456;2023-08-31T03:54:49;1.00;;;0.00;;
74177;SDS011;62540;48.456;-4.456;2023-08-31T03:57:16;0.00;;;0.00;;
74177;SDS011;62540;48.456;-4.456;2023-08-31T03:59:41;0.25;;;0.00;;
74177;SDS011;62540;48.456;-4.456;2023-08-31T04:02:07;3.25;;;0.75;;
74177;SDS011;62540;48.456;-4.456;2023-08-31T04:04:32;2.00;;;2.00;;
74177;SDS011;62540;48.456;-4.456;2023-08-31T04:06:59;1.00;;;1.00;;
74177;SDS011;62540;48.456;-4.456;2023-08-31T04:09:24;1.50;;;1.50;;
74177;SDS011;62540;48.456;-4.456;2023-08-31T04:11:50;2.75;;;1.00;;
74177;SDS011;62540;48.456;-4.456;2023-08-31T04:14:15;0.75;;;0.75;;
74177;SDS011;62540;48.456;-4.456;2023-08-31T04:16:42;1.50;;;1.00;;
74177;SDS011;62540;48.456;-4.456;2023-08-31T04:19:07;1.00;;;1.00;;
74177;SDS011;62540;48.456;-4.456;2023-08-31T04:21:33;1.00;;;0.00;;
74177;SDS011;62540;48.456;-4.456;2023-08-31T04:23:58;0.25;;;0.25;;
74177;SDS011;62540;48.456;-4.456;2023-08-31T04:26:25;1.00;;;1.00;;
74177;SDS011;62540;48.456;-4.456;2023-08-31T04:28:50;0.50;;;0.00;;
74177;SDS011;62540;48.456;-4.456;2023-08-31T04:31:16;0.00;;;0.00;;
74177;SDS011;62540;48.456;-4.456;2023-08-31T04:33:41;1.00;;;0.00;;
74177;SDS011;62540;48.456;-4.456;2023-08-31T04:36:06;1.00;;;0.00;;
74177;SDS011;62540;48.456;-4.456;2023-08-31T04:38:33;0.00;;;0.00;;
74177;SDS011;62540;48.456;-4.456;2023-08-31T04:40:59;0.00;;;0.00;;
74177;SDS011;62540;48.456;-4.456;2023-08-31T04:43:25;0.00;;;0.00;;
74177;SDS011;62540;48.456;-4.456;2023-08-31T04:45:51;0.00;;;0.00;;
74177;SDS011;62540;48.456;-4.456;2023-08-31T04:48:17;0.00;;;0.00;;
74177;SDS011;62540;48.456;-4.456;2023-08-31T04:50:42;0.00;;;0.00;;
74177;SDS011;62540;48.456;-4.456;2023-08-31T04:53:08;0.00;;;0.00;;
74177;SDS011;62540;48.456;-4.456;2023-08-31T04:55:33;0.00;;;0.00;;
74177;SDS011;62540;48.456;-4.456;2023-08-31T04:57:59;0.00;;;0.00;;
74177;SDS011;62540;48.456;-4.456;2023-08-31T05:00:24;0.00;;;0.00;;
74177;SDS011;62540;48.456;-4.456;2023-08-31T05:02:50;0.00;;;0.00;;
74177;SDS011;62540;48.456;-4.456;2023-08-31T05:05:16;0.00;;;0.00;;
74177;SDS011;62540;48.456;-4.456;2023-08-31T05:07:43;0.00;;;0.00;;
74177;SDS011;62540;48.456;-4.456;2023-08-31T05:10:08;0.00;;;0.00;;
74177;SDS011;62540;48.456;-4.456;2023-08-31T05:12:34;0.00;;;0.00;;
74177;SDS011;62540;48.456;-4.456;2023-08-31T05:14:59;0.00;;;0.00;;
74177;SDS011;62540;48.456;-4.456;2023-08-31T05:17:25;0.00;;;0.00;;
74177;SDS011;62540;48.456;-4.456;2023-08-31T05:19:50;0.00;;;0.00;;
74177;SDS011;62540;48.456;-4.456;2023-08-31T05:22:15;0.00;;;0.00;;
74177;SDS011;62540;48.456;-4.456;2023-08-31T05:24:41;0.00;;;0.00;;
74177;SDS011;62540;48.456;-4.456;2023-08-31T05:27:06;0.00;;;0.00;;
74177;SDS011;62540;48.456;-4.456;2023-08-31T05:29:31;0.00;;;0.00;;
74177;SDS011;62540;48.456;-4.456;2023-08-31T05:31:57;0.00;;;0.00;;
74177;SDS011;62540;48.456;-4.456;2023-08-31T05:34:24;0.00;;;0.00;;
74177;SDS011;62540;48.456;-4.456;2023-08-31T05:36:49;0.50;;;0.00;;
74177;SDS011;62540;48.456;-4.456;2023-08-31T05:39:15;0.00;;;0.00;;
74177;SDS011;62540;48.456;-4.456;2023-08-31T05:41:43;0.00;;;0.00;;
74177;SDS011;62540;48.456;-4.456;2023-08-31T05:44:09;0.00;;;0.00;;
74177;SDS011;62540;48.456;-4.456;2023-08-31T05:46:35;0.25;;;0.00;;
74177;SDS011;62540;48.456;-4.456;2023-08-31T05:49:01;1.00;;;1.00;;
74177;SDS011;62540;48.456;-4.456;2023-08-31T05:51:27;1.00;;;0.50;;
74177;SDS011;62540;48.456;-4.456;2023-08-31T05:53:52;1.00;;;1.00;;
74177;SDS011;62540;48.456;-4.456;2023-08-31T05:56:21;0.00;;;0.00;;
74177;SDS011;62540;48.456;-4.456;2023-08-31T05:58:46;1.00;;;1.00;;
74177;SDS011;62540;48.456;-4.456;2023-08-31T06:01:12;2.00;;;1.00;;
74177;SDS011;62540;48.456;-4.456;2023-08-31T06:03:38;1.00;;;1.00;;
74177;SDS011;62540;48.456;-4.456;2023-08-31T06:06:03;1.25;;;1.00;;
74177;SDS011;62540;48.456;-4.456;2023-08-31T06:08:28;1.75;;;0.75;;
74177;SDS011;62540;48.456;-4.456;2023-08-31T06:10:55;2.75;;;0.75;;
74177;SDS011;62540;48.456;-4.456;2023-08-31T06:13:21;3.00;;;1.25;;
74177;SDS011;62540;48.456;-4.456;2023-08-31T06:15:46;2.00;;;1.00;;
74177;SDS011;62540;48.456;-4.456;2023-08-31T06:18:12;1.00;;;1.00;;
74177;SDS011;62540;48.456;-4.456;2023-08-31T06:20:37;2.00;;;1.00;;
74177;SDS011;62540;48.456;-4.456;2023-08-31T06:23:02;2.00;;;2.00;;
74177;SDS011;62540;48.456;-4.456;2023-08-31T06:25:28;1.25;;;1.00;;
74177;SDS011;62540;48.456;-4.456;2023-08-31T06:27:54;2.25;;;1.00;;
74177;SDS011;62540;48.456;-4.456;2023-08-31T06:30:19;2.00;;;1.00;;
74177;SDS011;62540;48.456;-4.456;2023-08-31T06:32:45;2.75;;;1.50;;
74177;SDS011;62540;48.456;-4.456;2023-08-31T06:35:12;2.00;;;1.00;;
74177;SDS011;62540;48.456;-4.456;2023-08-31T06:37:39;2.00;;;1.00;;
74177;SDS011;62540;48.456;-4.456;2023-08-31T06:40:08;1.50;;;1.00;;
74177;SDS011;62540;48.456;-4.456;2023-08-31T06:42:35;1.00;;;1.00;;
74177;SDS011;62540;48.456;-4.456;2023-08-31T06:45:04;1.00;;;1.00;;
74177;SDS011;62540;48.456;-4.456;2023-08-31T06:47:31;1.00;;;0.25;;
74177;SDS011;62540;48.456;-4.456;2023-08-31T06:49:56;2.00;;;1.50;;
74177;SDS011;62540;48.456;-4.456;2023-08-31T06:52:23;2.00;;;2.00;;
74177;SDS011;62540;48.456;-4.456;2023-08-31T06:54:49;3.25;;;2.00;;
74177;SDS011;62540;48.456;-4.456;2023-08-31T06:57:14;1.00;;;1.00;;
74177;SDS011;62540;48.456;-4.456;2023-08-31T06:59:39;1.00;;;1.00;;
74177;SDS011;62540;48.456;-4.456;2023-08-31T07:02:05;2.25;;;2.00;;
74177;SDS011;62540;48.456;-4.456;2023-08-31T07:04:30;5.75;;;1.50;;
74177;SDS011;62540;48.456;-4.456;2023-08-31T07:06:56;1.25;;;1.00;;
74177;SDS011;62540;48.456;-4.456;2023-08-31T07:09:21;2.00;;;2.00;;
74177;SDS011;62540;48.456;-4.456;2023-08-31T07:11:46;4.00;;;2.00;;
74177;SDS011;62540;48.456;-4.456;2023-08-31T07:14:12;2.75;;;1.00;;
74177;SDS011;62540;48.456;-4.456;2023-08-31T07:16:37;2.00;;;2.00;;
74177;SDS011;62540;48.456;-4.456;2023-08-31T07:19:03;4.25;;;2.50;;
74177;SDS011;62540;48.456;-4.456;2023-08-31T07:21:28;2.00;;;1.00;;
74177;SDS011;62540;48.456;-4.456;2023-08-31T07:23:54;2.25;;;1.00;;
74177;SDS011;62540;48.456;-4.456;2023-08-31T07:26:20;1.75;;;1.00;;
74177;SDS011;62540;48.456;-4.456;2023-08-31T07:28:46;2.00;;;1.00;;
74177;SDS011;62540;48.456;-4.456;2023-08-31T07:31:12;2.25;;;1.00;;
74177;SDS011;62540;48.456;-4.456;2023-08-31T07:33:38;2.00;;;1.00;;
74177;SDS011;62540;48.456;-4.456;2023-08-31T07:36:03;0.50;;;0.00;;
74177;SDS011;62540;48.456;-4.456;2023-08-31T07:38:31;3.25;;;2.00;;
74177;SDS011;62540;48.456;-4.456;2023-08-31T07:40:56;2.00;;;1.00;;
74177;SDS011;62540;48.456;-4.456;2023-08-31T07:43:22;1.00;;;1.00;;
74177;SDS011;62540;48.456;-4.456;2023-08-31T07:45:48;2.25;;;1.75;;
74177;SDS011;62540;48.456;-4.456;2023-08-31T07:48:14;2.00;;;2.00;;
74177;SDS011;62540;48.456;-4.456;2023-08-31T07:50:42;2.00;;;2.00;;
74177;SDS011;62540;48.456;-4.456;2023-08-31T07:53:08;2.75;;;1.75;;
74177;SDS011;62540;48.456;-4.456;2023-08-31T07:55:33;2.00;;;2.00;;
74177;SDS011;62540;48.456;-4.456;2023-08-31T07:57:59;3.00;;;0.50;;
74177;SDS011;62540;48.456;-4.456;2023-08-31T08:00:25;1.25;;;1.25;;
74177;SDS011;62540;48.456;-4.456;2023-08-31T08:02:50;1.25;;;0.00;;
74177;SDS011;62540;48.456;-4.456;2023-08-31T08:05:16;3.75;;;2.00;;
74177;SDS011;62540;48.456;-4.456;2023-08-31T08:07:41;3.25;;;2.00;;
74177;SDS011;62540;48.456;-4.456;2023-08-31T08:10:10;1.50;;;1.50;;
74177;SDS011;62540;48.456;-4.456;2023-08-31T08:12:39;4.00;;;2.00;;
74177;SDS011;62540;48.456;-4.456;2023-08-31T08:15:05;3.25;;;2.00;;
74177;SDS011;62540;48.456;-4.456;2023-08-31T08:17:35;3.50;;;2.00;;
74177;SDS011;62540;48.456;-4.456;2023-08-31T08:20:00;1.00;;;0.00;;
74177;SDS011;62540;48.456;-4.456;2023-08-31T08:22:26;2.00;;;2.00;;
74177;SDS011;62540;48.456;-4.456;2023-08-31T08:24:51;1.75;;;1.50;;
74177;SDS011;62540;48.456;-4.456;2023-08-31T08:27:17;1.75;;;1.00;;
74177;SDS011;62540;48.456;-4.456;2023-08-31T08:29:45;3.75;;;2.00;;
74177;SDS011;62540;48.456;-4.456;2023-08-31T08:32:11;1.00;;;1.00;;
74177;SDS011;62540;48.456;-4.456;2023-08-31T08:34:37;1.25;;;1.25;;
74177;SDS011;62540;48.456;-4.456;2023-08-31T08:37:03;0.75;;;0.75;;
74177;SDS011;62540;48.456;-4.456;2023-08-31T08:39:31;1.75;;;1.75;;
74177;SDS011;62540;48.456;-4.456;2023-08-31T08:42:00;3.75;;;2.75;;
74177;SDS011;62540;48.456;-4.456;2023-08-31T08:44:31;2.00;;;2.00;;
74177;SDS011;62540;48.456;-4.456;2023-08-31T08:46:58;1.25;;;1.25;;
74177;SDS011;62540;48.456;-4.456;2023-08-31T08:49:26;2.00;;;2.00;;
74177;SDS011;62540;48.456;-4.456;2023-08-31T08:51:51;3.00;;;2.50;;
74177;SDS011;62540;48.456;-4.456;2023-08-31T08:54:18;2.50;;;2.00;;
74177;SDS011;62540;48.456;-4.456;2023-08-31T08:56:45;3.25;;;2.25;;
74177;SDS011;62540;48.456;-4.456;2023-08-31T08:59:10;2.75;;;1.75;;
74177;SDS011;62540;48.456;-4.456;2023-08-31T09:01:38;2.00;;;2.00;;
74177;SDS011;62540;48.456;-4.456;2023-08-31T09:04:04;2.50;;;2.00;;
74177;SDS011;62540;48.456;-4.456;2023-08-31T09:06:30;4.00;;;2.00;;
74177;SDS011;62540;48.456;-4.456;2023-08-31T09:08:55;3.25;;;1.25;;
74177;SDS011;62540;48.456;-4.456;2023-08-31T09:11:22;2.50;;;2.00;;
74177;SDS011;62540;48.456;-4.456;2023-08-31T09:13:47;2.50;;;2.00;;
74177;SDS011;62540;48.456;-4.456;2023-08-31T09:16:26;1.00;;;1.00;;
74177;SDS011;62540;48.456;-4.456;2023-08-31T09:18:54;2.00;;;2.00;;
74177;SDS011;62540;48.456;-4.456;2023-08-31T09:21:41;2.75;;;2.00;;
74177;SDS011;62540;48.456;-4.456;2023-08-31T09:24:06;3.50;;;1.25;;
74177;SDS011;62540;48.456;-4.456;2023-08-31T09:26:39;2.00;;;2.00;;
74177;SDS011;62540;48.456;-4.456;2023-08-31T09:29:08;2.00;;;1.00;;
74177;SDS011;62540;48.456;-4.456;2023-08-31T09:31:33;3.00;;;1.00;;
74177;SDS011;62540;48.456;-4.456;2023-08-31T09:33:59;2.50;;;2.00;;
74177;SDS011;62540;48.456;-4.456;2023-08-31T09:36:24;0.75;;;0.00;;
74177;SDS011;62540;48.456;-4.456;2023-08-31T09:38:51;2.75;;;1.25;;
74177;SDS011;62540;48.456;-4.456;2023-08-31T09:41:16;3.50;;;1.25;;
74177;SDS011;62540;48.456;-4.456;2023-08-31T09:43:42;1.00;;;1.00;;
74177;SDS011;62540;48.456;-4.456;2023-08-31T09:46:08;2.00;;;1.00;;
74177;SDS011;62540;48.456;-4.456;2023-08-31T09:48:34;2.00;;;1.75;;
74177;SDS011;62540;48.456;-4.456;2023-08-31T09:51:03;1.75;;;1.00;;
74177;SDS011;62540;48.456;-4.456;2023-08-31T09:53:29;3.00;;;2.00;;
74177;SDS011;62540;48.456;-4.456;2023-08-31T09:55:56;3.00;;;2.00;;
74177;SDS011;62540;48.456;-4.456;2023-08-31T09:58:22;3.50;;;2.50;;
74177;SDS011;62540;48.456;-4.456;2023-08-31T10:00:49;1.00;;;1.00;;
74177;SDS011;62540;48.456;-4.456;2023-08-31T10:03:16;2.00;;;1.25;;
74177;SDS011;62540;48.456;-4.456;2023-08-31T10:05:46;2.75;;;1.00;;
74177;SDS011;62540;48.456;-4.456;2023-08-31T10:08:14;3.75;;;1.25;;
74177;SDS011;62540;48.456;-4.456;2023-08-31T10:10:40;4.25;;;2.00;;
74177;SDS011;62540;48.456;-4.456;2023-08-31T10:13:06;4.00;;;1.00;;
74177;SDS011;62540;48.456;-4.456;2023-08-31T10:15:34;2.00;;;2.00;;
74177;SDS011;62540;48.456;-4.456;2023-08-31T10:18:05;1.00;;;1.00;;
74177;SDS011;62540;48.456;-4.456;2023-08-31T10:20:32;2.00;;;1.50;;
74177;SDS011;62540;48.456;-4.456;2023-08-31T10:23:02;2.00;;;2.00;;
74177;SDS011;62540;48.456;-4.456;2023-08-31T10:28:18;3.00;;;1.00;;
74177;SDS011;62540;48.456;-4.456;2023-08-31T10:33:45;2.00;;;2.00;;
74177;SDS011;62540;48.456;-4.456;2023-08-31T10:38:47;1.75;;;1.00;;
74177;SDS011;62540;48.456;-4.456;2023-08-31T10:41:29;3.25;;;3.00;;
74177;SDS011;62540;48.456;-4.456;2023-08-31T10:43:58;2.00;;;2.00;;
74177;SDS011;62540;48.456;-4.456;2023-08-31T10:46:33;2.50;;;1.00;;
74177;SDS011;62540;48.456;-4.456;2023-08-31T10:51:35;1.00;;;1.00;;
74177;SDS011;62540;48.456;-4.456;2023-08-31T10:54:05;2.00;;;1.00;;
74177;SDS011;62540;48.456;-4.456;2023-08-31T10:56:47;1.75;;;1.00;;
74177;SDS011;62540;48.456;-4.456;2023-08-31T10:59:20;1.25;;;1.00;;
74177;SDS011;62540;48.456;-4.456;2023-08-31T11:01:59;1.00;;;1.00;;
74177;SDS011;62540;48.456;-4.456;2023-08-31T11:04:28;1.75;;;1.00;;
74177;SDS011;62540;48.456;-4.456;2023-08-31T11:07:13;2.25;;;1.25;;
74177;SDS011;62540;48.456;-4.456;2023-08-31T11:09:43;0.00;;;0.00;;
74177;SDS011;62540;48.456;-4.456;2023-08-31T11:12:09;0.75;;;0.00;;
74177;SDS011;62540;48.456;-4.456;2023-08-31T11:14:35;1.50;;;1.50;;
74177;SDS011;62540;48.456;-4.456;2023-08-31T11:17:01;1.50;;;0.25;;
74177;SDS011;62540;48.456;-4.456;2023-08-31T11:19:29;2.50;;;0.00;;
74177;SDS011;62540;48.456;-4.456;2023-08-31T11:21:54;1.25;;;1.00;;
74177;SDS011;62540;48.456;-4.456;2023-08-31T11:24:20;1.00;;;0.00;;
74177;SDS011;62540;48.456;-4.456;2023-08-31T11:26:51;1.00;;;0.00;;
74177;SDS011;62540;48.456;-4.456;2023-08-31T11:29:18;1.00;;;1.00;;
74177;SDS011;62540;48.456;-4.456;2023-08-31T11:31:43;0.50;;;0.00;;
74177;SDS011;62540;48.456;-4.456;2023-08-31T11:34:12;0.25;;;0.25;;
74177;SDS011;62540;48.456;-4.456;2023-08-31T11:36:39;1.75;;;0.75;;
74177;SDS011;62540;48.456;-4.456;2023-08-31T11:39:06;0.50;;;0.50;;
74177;SDS011;62540;48.456;-4.456;2023-08-31T11:41:32;3.00;;;1.00;;
74177;SDS011;62540;48.456;-4.456;2023-08-31T11:44:00;0.00;;;0.00;;
74177;SDS011;62540;48.456;-4.456;2023-08-31T11:46:26;0.25;;;0.00;;
74177;SDS011;62540;48.456;-4.456;2023-08-31T11:48:52;0.50;;;0.50;;
74177;SDS011;62540;48.456;-4.456;2023-08-31T11:51:18;0.00;;;0.00;;
74177;SDS011;62540;48.456;-4.456;2023-08-31T11:53:44;0.25;;;0.25;;
74177;SDS011;62540;48.456;-4.456;2023-08-31T11:56:09;3.00;;;1.00;;
74177;SDS011;62540;48.456;-4.456;2023-08-31T11:58:40;0.25;;;0.25;;
74177;SDS011;62540;48.456;-4.456;2023-08-31T12:01:07;1.00;;;1.00;;
74177;SDS011;62540;48.456;-4.456;2023-08-31T12:03:42;0.00;;;0.00;;
74177;SDS011;62540;48.456;-4.456;2023-08-31T12:06:11;2.00;;;1.25;;
74177;SDS011;62540;48.456;-4.456;2023-08-31T12:08:40;1.75;;;1.00;;
74177;SDS011;62540;48.456;-4.456;2023-08-31T12:11:08;1.00;;;0.50;;
74177;SDS011;62540;48.456;-4.456;2023-08-31T12:13:34;1.75;;;1.00;;
74177;SDS011;62540;48.456;-4.456;2023-08-31T12:15:59;1.25;;;0.50;;
74177;SDS011;62540;48.456;-4.456;2023-08-31T12:18:28;1.75;;;1.00;;
74177;SDS011;62540;48.456;-4.456;2023-08-31T12:20:55;1.75;;;1.00;;
74177;SDS011;62540;48.456;-4.456;2023-08-31T12:23:20;1.75;;;1.00;;
74177;SDS011;62540;48.456;-4.456;2023-08-31T12:25:51;1.25;;;1.00;;
74177;SDS011;62540;48.456;-4.456;2023-08-31T12:28:18;2.50;;;1.00;;
74177;SDS011;62540;48.456;-4.456;2023-08-31T12:30:48;2.00;;;1.00;;
74177;SDS011;62540;48.456;-4.456;2023-08-31T12:33:15;1.00;;;1.00;;
74177;SDS011;62540;48.456;-4.456;2023-08-31T12:35:41;1.25;;;1.25;;
74177;SDS011;62540;48.456;-4.456;2023-08-31T12:38:06;1.00;;;0.50;;
74177;SDS011;62540;48.456;-4.456;2023-08-31T12:40:32;1.00;;;1.00;;
74177;SDS011;62540;48.456;-4.456;2023-08-31T12:42:57;2.00;;;1.25;;
74177;SDS011;62540;48.456;-4.456;2023-08-31T12:45:23;3.00;;;1.25;;
74177;SDS011;62540;48.456;-4.456;2023-08-31T12:47:48;1.00;;;1.00;;
74177;SDS011;62540;48.456;-4.456;2023-08-31T12:50:13;1.25;;;1.25;;
74177;SDS011;62540;48.456;-4.456;2023-08-31T12:52:39;0.50;;;0.50;;
74177;SDS011;62540;48.456;-4.456;2023-08-31T12:55:09;1.00;;;1.00;;
74177;SDS011;62540;48.456;-4.456;2023-08-31T12:57:35;1.00;;;1.00;;
74177;SDS011;62540;48.456;-4.456;2023-08-31T13:00:01;2.00;;;2.00;;
74177;SDS011;62540;48.456;-4.456;2023-08-31T13:02:28;2.25;;;1.50;;
74177;SDS011;62540;48.456;-4.456;2023-08-31T13:04:54;2.00;;;1.00;;
74177;SDS011;62540;48.456;-4.456;2023-08-31T13:07:19;1.50;;;1.25;;
74177;SDS011;62540;48.456;-4.456;2023-08-31T13:09:45;2.50;;;0.50;;
74177;SDS011;62540;48.456;-4.456;2023-08-31T13:12:10;2.75;;;2.00;;
74177;SDS011;62540;48.456;-4.456;2023-08-31T13:14:35;2.75;;;2.00;;
74177;SDS011;62540;48.456;-4.456;2023-08-31T13:17:01;1.75;;;1.75;;
74177;SDS011;62540;48.456;-4.456;2023-08-31T13:19:26;3.75;;;1.00;;
74177;SDS011;62540;48.456;-4.456;2023-08-31T13:21:52;3.00;;;2.50;;
74177;SDS011;62540;48.456;-4.456;2023-08-31T13:24:17;1.25;;;1.00;;
74177;SDS011;62540;48.456;-4.456;2023-08-31T13:26:43;2.25;;;2.00;;
74177;SDS011;62540;48.456;-4.456;2023-08-31T13:29:12;2.25;;;2.00;;
74177;SDS011;62540;48.456;-4.456;2023-08-31T13:31:38;1.00;;;1.00;;
74177;SDS011;62540;48.456;-4.456;2023-08-31T13:34:04;2.00;;;2.00;;
74177;SDS011;62540;48.456;-4.456;2023-08-31T13:36:31;0.00;;;0.00;;
74177;SDS011;62540;48.456;-4.456;2023-08-31T13:38:57;2.00;;;1.50;;
74177;SDS011;62540;48.456;-4.456;2023-08-31T13:41:22;1.00;;;1.00;;
74177;SDS011;62540;48.456;-4.456;2023-08-31T13:43:47;1.25;;;1.00;;
74177;SDS011;62540;48.456;-4.456;2023-08-31T13:46:13;2.25;;;1.25;;
74177;SDS011;62540;48.456;-4.456;2023-08-31T13:48:38;2.00;;;1.00;;
74177;SDS011;62540;48.456;-4.456;2023-08-31T13:51:04;2.00;;;2.00;;
74177;SDS011;62540;48.456;-4.456;2023-08-31T13:53:29;3.25;;;2.00;;
74177;SDS011;62540;48.456;-4.456;2023-08-31T13:55:55;1.50;;;1.00;;
74177;SDS011;62540;48.456;-4.456;2023-08-31T13:58:20;2.00;;;1.00;;
74177;SDS011;62540;48.456;-4.456;2023-08-31T14:00:46;2.00;;;1.75;;
74177;SDS011;62540;48.456;-4.456;2023-08-31T14:03:12;2.00;;;1.00;;
74177;SDS011;62540;48.456;-4.456;2023-08-31T14:05:37;3.00;;;1.00;;
74177;SDS011;62540;48.456;-4.456;2023-08-31T14:08:03;2.25;;;1.00;;
74177;SDS011;62540;48.456;-4.456;2023-08-31T14:10:30;2.00;;;2.00;;
74177;SDS011;62540;48.456;-4.456;2023-08-31T14:12:57;1.00;;;0.75;;
74177;SDS011;62540;48.456;-4.456;2023-08-31T14:15:23;1.75;;;0.25;;
74177;SDS011;62540;48.456;-4.456;2023-08-31T14:17:51;2.00;;;1.00;;
74177;SDS011;62540;48.456;-4.456;2023-08-31T14:20:18;1.75;;;1.00;;
74177;SDS011;62540;48.456;-4.456;2023-08-31T14:22:43;2.75;;;1.50;;
74177;SDS011;62540;48.456;-4.456;2023-08-31T14:25:10;1.00;;;1.00;;
74177;SDS011;62540;48.456;-4.456;2023-08-31T14:27:36;2.25;;;1.00;;
74177;SDS011;62540;48.456;-4.456;2023-08-31T14:30:02;2.25;;;2.25;;
74177;SDS011;62540;48.456;-4.456;2023-08-31T14:32:27;2.50;;;2.00;;
74177;SDS011;62540;48.456;-4.456;2023-08-31T14:34:54;2.00;;;2.00;;
74177;SDS011;62540;48.456;-4.456;2023-08-31T14:37:20;2.00;;;1.00;;
74177;SDS011;62540;48.456;-4.456;2023-08-31T14:39:46;2.75;;;2.25;;
74177;SDS011;62540;48.456;-4.456;2023-08-31T14:42:11;2.25;;;2.00;;
74177;SDS011;62540;48.456;-4.456;2023-08-31T14:44:37;2.00;;;1.00;;
74177;SDS011;62540;48.456;-4.456;2023-08-31T14:47:02;2.00;;;2.00;;